Pagrindinis puslapis
METAR-TAF:

METAR-TAF

Oro uostai :

Čumphonas, Tailandas

platuma: 10-42-40N, ilguma: 099-21-42E, Aukštis: 5 m

Dabartinis oras

Ataskaita buvo paskelbta 46 minutes, ne 05:00 UTC
Vėjas 7 kt iš Vakarų/Pietvakarių, svyruoja nuo Pietvakarių ir Vakarų/Šiaurės Vakarų
Temperatūra 31°C
Drėgmė 71%
Slėgis 1009 hPa
Matomumas 10 km arba daugiau
Su prošvaistėmis ne aukštis 2000 ft

METAR: VTSE 210500Z 25007KT 220V290 9999 BKN020 31/25 Q1009 NOSIG

Laikas: 12:46 (05:46 UTC)

Prognozė

Ataskaita buvo paskelbta 46 minutes, ne 05:00 UTC
Prognozė galioja nuo 21 metu 06 UTC su 22 metu 06 UTC
Vėjas 8 kt iš Vakarų
Matomumas 10 km arba daugiau
Išsisklaidę debesys ne aukštis 2000 ft
Laikinai
nuo 21 metu 06 UTC su 21 metu 12 UTC
Vėjas 10 kt iš Vakarų su gūsio iki 20 kt
Matomumas: 5000 m
Išsisklaidę debesys ne aukštis 1500 ft
Su prošvaistėmis ne aukštis 10000 ft
lietus

TAF: VTSE 210500Z 2106/2206 27008KT 9999 SCT020 TEMPO 2106/2112 27010G20KT 5000 RA SCT015 BKN100

Orai ataskaitas ir orų prognozės (METAR, TAF).

turimą stotys yra geltonos ir raudonos taškus žemėlapyje.

Perkelti pele per norėdami pamatyti stoties vardą.

Tada spustelėkite, norėdami matyti oro stebėjimo ir prognozės.

Norėdami pakeisti žemėlapį: spustelėkite ant žalios mygtukų su juodo kryžiaus žemyn,; žalią mygtuką su brūkšneliu, jei norite nutolinti; arba žalių rodyklių gretimoms žemėlapius.


METAR-TAF: